South Chatham, MA (02659)

11:29 PM EST on December 24, 2014 (GMT -0500)
south chatham | Change Station
CLOSE
Current Station
Personal Weather Station
Location: South Chatham, MA
Elevation: 50 ft
Nearby Weather Stations
Active Advisory: Areal Flood Watch, Wind Advisory

Elev 50 ft 41.67 °N, 70.01 °W | Updated 9 minutes ago

Overcast
Overcast
56.3 °F
Feels Like 56.3 °F
N
0.0
Wind Variable Wind from SSW
Gusts 19.0 mph

Today
High -- | Low -- °F
--% Chance of Precip.
Yesterday
High -- | Low -- °F
Precip. -- in
7:05 AM 4:14 PM
Waxing Crescent, 13% visible
Pressure 29.64 in
Visibility 6.0 miles
Clouds Overcast 200 ft
Dew Point 56 °F
Humidity 100%
Rainfall 0.68 in
Snow Depth Not available.
UV 0 out of 12
Pollen .10 out of 12
Air Quality Not available.
Flu Activity Not available.
SPECI KCQX 250423Z AUTO 19016G28KT 6SM BR OVC002 14/14 A2964 RMK AO2 PK WND 19028/0420 RAE23 P0001 T01440144

More Conditions Fewer Conditions

Pressure 29.64 in
Visibility 6.0 miles
Clouds Overcast 200 ft
Dew Point 56 °F
Humidity 100%
Rainfall 0.68 in
Snow Depth Not available.
UV 0 out of 12
Pollen .10 out of 12
Air Quality Not available.
Flu Activity Not available.
SPECI KCQX 250423Z AUTO 19016G28KT 6SM BR OVC002 14/14 A2964 RMK AO2 PK WND 19028/0420 RAE23 P0001 T01440144

More Conditions Fewer Conditions

10-Day Weather Forecast

Almanac

Astronomy

Dec. 24, 2014 Rise Set
Actual Time
Civil Twilight
Nautical Twilight
Astronomical Twilight
Moon
Length of Visible Light
Length of Day
Tomorrow will be .
, % of the Moon is Illuminated

Today's Extremes

State Highs State Lows

Community

WunderPhotos

Upload Photos

1,780,235 photos uploaded!

WunderBlogs® & News

Nearby

Air Quality

  Air Quality AQ Index Pollutant
Not available.

Snow Depth

Station Depth Elevation

Earthquake Activity

City Distance Mag. Time & Date
Minimum magnitude displayed is 2.5.

Coastal Water Temperatures

Place Temperature

Nearby Weather Stations